M I D A S
Marine Information and Data Acquisition System
Tripno 1747 of the Zeeleeuw from 2009-08-12 06:34:27 to 2009-08-12 12:35:58
Back to CruiseResearch ActivitiesStationsMapUnderway DataData graphs

EquipmentUnitsComments
TimeDGPSUTC
LatitudeDGPSDM.mWGS84
LongitudeDGPSDM.mWGS84
SpeedMeteo Stationm/sRelative wind speed
DirectionMeteo StationdegRelative wind direction
TemperatureMeteo Stationdeg CelciusAir temperature
PressureMeteo StationPaAtmospheric pressure
HumidityMeteo Station%Relative humidity
Missing or incorrect values are displayed as -999
Metereological data collected by the RV Zeeleeuw from 2009-08-12 06:28:51 to 2009-08-12 12:41:58
Time Latitude Longitude Speed Direction Temperature Pressure Humidity
2009-08-12 06:29 51°13.686 2°55.91 2.3 21 17.1 101920 54
2009-08-12 06:30 51°13.686 2°55.909 3.5 23 17.2 101920 53
2009-08-12 06:31 51°13.689 2°55.91 4.4 21 17.2 101920 56
2009-08-12 06:32 51°13.689 2°55.91 3.4 34 17.1 101920 53
2009-08-12 06:33 51°13.689 2°55.911 3.8 25 17.2 101910 56
2009-08-12 06:34 51°13.688 2°55.911 2.1 15 17.2 101920 54
2009-08-12 06:35 51°13.686 2°55.91 2.7 27 17.2 101920 53
2009-08-12 06:36 51°13.687 2°55.911 2.5 17 17.3 101920 56
2009-08-12 06:37 51°13.686 2°55.91 2.2 24 17.3 101920 55
2009-08-12 06:38 51°13.685 2°55.908 2.6 38 17.3 101930 56
2009-08-12 06:39 51°13.696 2°55.851 2.7 21 17.3 101930 54
2009-08-12 06:40 51°13.699 2°55.783 4.7 39 17.3 101930 56
2009-08-12 06:41 51°13.697 2°55.766 3.1 27 17.3 101930 53
2009-08-12 06:42 51°13.702 2°55.752 0.5 21 17.3 101930 55
2009-08-12 06:43 51°13.749 2°55.709 3.3 27 17.3 101920 56
2009-08-12 06:44 51°13.813 2°55.647 2.6 22 17.4 101920 54
2009-08-12 06:45 51°13.877 2°55.629 1.8 26 17.4 101920 56
2009-08-12 06:46 51°13.93 2°55.629 2.5 255 17.4 101930 55
2009-08-12 06:47 51°13.966 2°55.611 3.4 252 17.4 101930 56
2009-08-12 06:48 51°14.011 2°55.568 3.8 27 17.4 101930 55
2009-08-12 06:49 51°14.095 2°55.463 2.9 21 17.4 101930 55
2009-08-12 06:50 51°14.203 2°55.33 6.1 26 17.5 101930 54
2009-08-12 06:51 51°14.304 2°55.162 6.5 20 17.6 101930 55
2009-08-12 06:52 51°14.42 2°54.978 7.7 27 17.8 101920 54
2009-08-12 06:53 51°14.579 2°54.826 7.6 25 17.9 101930 54
2009-08-12 06:54 51°14.747 2°54.671 10.2 21 18 101920 56
2009-08-12 06:55 51°14.916 2°54.527 10.7 24 18.3 101910 55
2009-08-12 06:56 51°15.086 2°54.384 12.3 29 18.4 101920 56
2009-08-12 06:57 51°15.253 2°54.24 9.7 26 18.4 101900 55
2009-08-12 06:58 51°15.42 2°54.095 10.3 27 18.4 101910 55
2009-08-12 06:59 51°15.588 2°53.949 13 26 18.6 101900 55
2009-08-12 07:00 51°15.754 2°53.801 12.4 22 18.7 101900 55
2009-08-12 07:01 51°15.922 2°53.654 10.5 25 18.8 101900 55
2009-08-12 07:02 51°16.093 2°53.505 10.7 22 18.8 101900 56
2009-08-12 07:03 51°16.262 2°53.364 9.9 24 18.8 101900 55
2009-08-12 07:04 51°16.436 2°53.216 10.2 26 18.8 101900 54
2009-08-12 07:05 51°16.603 2°53.075 9.7 28 18.8 101900 55
2009-08-12 07:06 51°16.776 2°52.928 10 28 18.7 101900 55
2009-08-12 07:07 51°16.941 2°52.771 9.5 29 18.7 101900 54
2009-08-12 07:08 51°17.104 2°52.607 10.5 29 18.8 101890 56
2009-08-12 07:09 51°17.265 2°52.439 9.7 24 18.8 101890 54
2009-08-12 07:10 51°17.426 2°52.268 10.3 27 18.9 101900 56
2009-08-12 07:11 51°17.561 2°52.053 11.2 315 18.9 101890 55
2009-08-12 07:12 51°17.68 2°51.819 12.9 24 18.9 101900 53
2009-08-12 07:13 51°17.799 2°51.579 12.8 316 18.9 101890 54
2009-08-12 07:14 51°17.924 2°51.337 12 316 18.9 101890 54
2009-08-12 07:15 51°18.048 2°51.099 9.8 26 18.9 101890 54
2009-08-12 07:16 51°18.171 2°50.861 12.6 318 18.9 101890 56
2009-08-12 07:17 51°18.291 2°50.626 11.6 317 18.9 101890 55
2009-08-12 07:18 51°18.416 2°50.383 10.7 316 19 101890 55
2009-08-12 07:19 51°18.537 2°50.151 12.3 317 19 101900 55
2009-08-12 07:20 51°18.659 2°49.91 13.1 317 18.9 101900 88
2009-08-12 07:21 51°18.779 2°49.678 13.4 315 18.9 101900 86
2009-08-12 07:22 51°18.903 2°49.433 10.8 29 18.9 101900 87
2009-08-12 07:23 51°19.024 2°49.189 12.2 316 18.9 101900 86
2009-08-12 07:24 51°19.147 2°48.945 12.5 316 19 101900 86
2009-08-12 07:25 51°19.27 2°48.701 10.8 27 19 101900 85
2009-08-12 07:26 51°19.393 2°48.462 12.4 315 19 101890 83
2009-08-12 07:27 51°19.517 2°48.221 10.3 27 19 101900 83
2009-08-12 07:28 51°19.636 2°47.988 12.4 28 19 101900 86
2009-08-12 07:29 51°19.761 2°47.746 10.7 316 19 101890 85
2009-08-12 07:30 51°19.881 2°47.51 10.3 28 19 101890 77
2009-08-12 07:31 51°20.007 2°47.265 12 28 19 101890 86
2009-08-12 07:32 51°20.131 2°47.025 12.5 30 19 101900 86
2009-08-12 07:33 51°20.253 2°46.783 11.7 24 19 101890 86
2009-08-12 07:34 51°20.374 2°46.541 12.4 24 18.9 101890 84
2009-08-12 07:35 51°20.495 2°46.3 11.9 29 18.9 101890 84
2009-08-12 07:36 51°20.622 2°46.052 12.1 26 18.9 101890 86
2009-08-12 07:37 51°20.769 2°45.853 10.6 23 19 101900 86
2009-08-12 07:38 51°20.938 2°45.699 9.8 26 19 101900 87
2009-08-12 07:39 51°21.102 2°45.542 10.1 24 19 101900 88
2009-08-12 07:40 51°21.254 2°45.364 9.3 29 18.9 101890 87
2009-08-12 07:41 51°21.41 2°45.171 9.4 27 18.9 101900 87
2009-08-12 07:42 51°21.568 2°44.985 12.1 20 19 101900 87
2009-08-12 07:43 51°21.734 2°44.815 9.7 26 19 101900 85
2009-08-12 07:44 51°21.885 2°44.621 11.7 28 18.9 101900 85
2009-08-12 07:45 51°22.022 2°44.43 8.3 26 18.9 101900 86
2009-08-12 07:46 51°22.111 2°44.313 9.3 21 18.9 101910 87
2009-08-12 07:47 51°22.182 2°44.216 9.6 21 19 101910 86
2009-08-12 07:48 51°22.274 2°44.095 7.8 28 18.9 101910 86
2009-08-12 07:49 51°22.349 2°43.996 10.4 28 19 101910 85
2009-08-12 07:50 51°22.417 2°43.905 9.2 26 19 101910 86
2009-08-12 07:51 51°22.482 2°43.816 8.4 21 19 101910 85
2009-08-12 07:52 51°22.611 2°43.713 9.3 25 19 101910 84
2009-08-12 07:53 51°22.782 2°43.772 5.7 257 19 101920 86
2009-08-12 07:54 51°22.937 2°43.948 5.7 257 19 101920 85
2009-08-12 07:55 51°23.084 2°44.14 3.2 260 19 101920 86
2009-08-12 07:56 51°23.23 2°44.325 2.7 253 19 101920 84
2009-08-12 07:57 51°23.371 2°44.532 3 261 19 101930 85
2009-08-12 07:58 51°23.508 2°44.739 4.2 256 18.9 101930 82
2009-08-12 07:59 51°23.644 2°44.943 3.6 257 19 101920 85
2009-08-12 08:00 51°23.78 2°45.146 3.9 255 19 101930 85
2009-08-12 08:01 51°23.911 2°45.36 2.3 262 19 101920 85
2009-08-12 08:02 51°24.039 2°45.574 3.7 257 18.9 101920 83
2009-08-12 08:03 51°24.173 2°45.794 2.5 260 18.9 101920 83
2009-08-12 08:04 51°24.306 2°46.006 4.1 257 19 101920 85
2009-08-12 08:05 51°24.439 2°46.221 3.8 256 19 101920 84
2009-08-12 08:06 51°24.572 2°46.435 2.7 252 19 101920 84
2009-08-12 08:07 51°24.703 2°46.65 2.8 260 19 101920 81
2009-08-12 08:08 51°24.834 2°46.866 3.3 254 19 101910 82
2009-08-12 08:09 51°24.966 2°47.084 2.7 250 19 101910 83
2009-08-12 08:10 51°25.1 2°47.3 3.6 255 19 101920 84
2009-08-12 08:11 51°25.236 2°47.511 3.6 260 19 101910 83
2009-08-12 08:12 51°25.376 2°47.71 3 250 19 101910 85
2009-08-12 08:13 51°25.518 2°47.907 3.8 256 19.1 101920 85
2009-08-12 08:14 51°25.66 2°48.104 4.2 256 19 101910 84
2009-08-12 08:15 51°25.763 2°48.243 4.8 21 19 101920 84
2009-08-12 08:16 51°25.839 2°48.324 5.7 30 19 101910 84
2009-08-12 08:17 51°25.905 2°48.398 4.5 20 18.9 101920 79
2009-08-12 08:18 51°25.964 2°48.476 5.9 20 18.9 101910 80
2009-08-12 08:19 51°26.016 2°48.501 4.6 264 18.9 101910 81
2009-08-12 08:20 51°26.034 2°48.498 7 259 18.9 101910 83
2009-08-12 08:21 51°26.045 2°48.495 7.8 257 19 101910 86
2009-08-12 08:22 51°26.05 2°48.497 7.2 260 19 101910 87
2009-08-12 08:23 51°26.052 2°48.501 5.5 266 19 101910 87
2009-08-12 08:24 51°26.052 2°48.504 6.1 23 19 101910 81
2009-08-12 08:25 51°26.05 2°48.504 6.9 20 19 101910 86
2009-08-12 08:26 51°26.049 2°48.503 8.4 23 18.9 101910 84
2009-08-12 08:27 51°26.048 2°48.501 7.8 24 18.8 101910 85
2009-08-12 08:28 51°26.046 2°48.498 7.9 25 18.8 101910 85
2009-08-12 08:29 51°26.046 2°48.495 6.5 28 18.8 101900 85
2009-08-12 08:30 51°26.051 2°48.5 7.9 26 18.8 101910 85
2009-08-12 08:31 51°26.099 2°48.557 3.6 21 18.8 101910 87
2009-08-12 08:32 51°26.191 2°48.672 3.6 28 18.8 101910 86
2009-08-12 08:33 51°26.293 2°48.793 3.6 23 18.8 101910 88
2009-08-12 08:34 51°26.398 2°48.911 3.8 23 18.9 101910 86
2009-08-12 08:35 51°26.504 2°49.033 4.7 26 18.9 101910 84
2009-08-12 08:36 51°26.607 2°49.161 4 22 18.8 101910 86
2009-08-12 08:37 51°26.706 2°49.298 4.2 24 18.9 101910 86
2009-08-12 08:38 51°26.794 2°49.421 4.7 24 18.9 101900 86
2009-08-12 08:39 51°26.841 2°49.464 6.2 318 18.9 101900 87
2009-08-12 08:40 51°26.86 2°49.462 7.6 260 18.9 101890 85
2009-08-12 08:41 51°26.873 2°49.46 8.5 258 18.9 101890 86
2009-08-12 08:42 51°26.883 2°49.46 9.8 256 18.9 101890 85
2009-08-12 08:43 51°26.89 2°49.463 8 257 18.9 101890 84
2009-08-12 08:44 51°26.897 2°49.466 6 251 19 101890 84
2009-08-12 08:45 51°26.904 2°49.472 8.5 258 19 101880 85
2009-08-12 08:46 51°26.908 2°49.478 7.5 259 18.9 101880 78
2009-08-12 08:47 51°26.91 2°49.484 6.7 262 18.9 101880 82
2009-08-12 08:48 51°26.911 2°49.491 6.4 268 18.9 101880 85
2009-08-12 08:49 51°26.911 2°49.496 7.5 268 19 101880 84
2009-08-12 08:50 51°26.913 2°49.501 8.1 28 18.9 101880 83
2009-08-12 08:51 51°26.938 2°49.488 7.8 247 18.9 101880 83
2009-08-12 08:52 51°26.955 2°49.416 9.3 327 18.9 101880 85
2009-08-12 08:53 51°26.898 2°49.331 11.8 350 18.9 101870 83
2009-08-12 08:54 51°26.766 2°49.318 12 354 18.9 101880 83
2009-08-12 08:55 51°26.587 2°49.335 12.8 355 18.8 101870 84
2009-08-12 08:56 51°26.399 2°49.352 12.2 354 18.8 101880 84
2009-08-12 08:57 51°26.209 2°49.363 11.6 353 18.8 101880 84
2009-08-12 08:58 51°26.018 2°49.374 13.4 354 18.9 101880 84
2009-08-12 08:59 51°25.829 2°49.387 13 354 18.9 101880 85
2009-08-12 09:00 51°25.64 2°49.399 13.6 356 18.8 101880 85
2009-08-12 09:01 51°25.453 2°49.43 12.8 356 18.9 101870 87
2009-08-12 09:02 51°25.266 2°49.468 11.2 357 18.9 101880 87
2009-08-12 09:03 51°25.079 2°49.504 13.9 355 18.9 101870 89
2009-08-12 09:04 51°24.89 2°49.536 12.8 357 18.8 101870 87
2009-08-12 09:05 51°24.699 2°49.565 11.8 357 18.8 101880 85
2009-08-12 09:06 51°24.509 2°49.598 13.5 356 18.8 101870 83
2009-08-12 09:07 51°24.318 2°49.635 14.4 358 18.8 101870 83
2009-08-12 09:08 51°24.131 2°49.671 13.5 358 18.8 101860 85
2009-08-12 09:09 51°23.941 2°49.707 14 359 18.8 101870 83
2009-08-12 09:10 51°23.794 2°49.729 11.6 359 18.9 101880 82
2009-08-12 09:11 51°23.719 2°49.67 9.7 329 18.9 101890 76
2009-08-12 09:12 51°23.745 2°49.542 12.5 25 18.9 101880 78
2009-08-12 09:13 51°23.86 2°49.322 12.3 29 18.9 101880 78
2009-08-12 09:14 51°23.953 2°49.056 16.9 24 18.9 101870 80
2009-08-12 09:15 51°23.969 2°48.742 14.3 319 18.9 101850 70
2009-08-12 09:16 51°23.959 2°48.422 14.7 322 19 101870 62
2009-08-12 09:17 51°23.949 2°48.101 15.8 320 19 101860 75
2009-08-12 09:18 51°23.945 2°47.778 14 321 19 101850 70
2009-08-12 09:19 51°23.942 2°47.457 14.8 322 19 101860 61
2009-08-12 09:20 51°23.942 2°47.139 17 320 18.9 101850 59
2009-08-12 09:21 51°23.935 2°46.82 18.1 323 19 101860 60
2009-08-12 09:22 51°23.918 2°46.5 16.3 323 19 101870 60
2009-08-12 09:23 51°23.904 2°46.18 13.3 323 19 101860 80
2009-08-12 09:24 51°23.89 2°45.86 17.1 323 19.1 101870 80
2009-08-12 09:25 51°23.875 2°45.538 15.2 324 19.1 101860 73
2009-08-12 09:26 51°23.862 2°45.215 14.5 322 19 101860 73
2009-08-12 09:27 51°23.863 2°44.894 15 320 19 101860 80
2009-08-12 09:28 51°23.872 2°44.588 14.9 318 19 101860 80
2009-08-12 09:29 51°23.899 2°44.348 10.8 26 19 101860 80
2009-08-12 09:30 51°23.918 2°44.243 11.7 21 19 101870 82
2009-08-12 09:31 51°23.922 2°44.217 9 263 19 101890 81
2009-08-12 09:32 51°23.922 2°44.208 7.9 264 18.9 101900 82
2009-08-12 09:33 51°23.923 2°44.205 7.7 29 18.9 101900 79
2009-08-12 09:34 51°23.935 2°44.214 5.8 22 18.9 101900 82
2009-08-12 09:35 51°23.933 2°44.217 8.6 42 19 101890 83
2009-08-12 09:36 51°23.926 2°44.232 9.1 38 19 101880 83
2009-08-12 09:37 51°23.918 2°44.253 10.7 42 19 101880 86
2009-08-12 09:38 51°23.913 2°44.278 10.8 25 18.9 101890 85
2009-08-12 09:39 51°23.915 2°44.305 6 25 18.8 101890 61
2009-08-12 09:40 51°23.924 2°44.324 8.1 27 18.8 101900 59
2009-08-12 09:41 51°23.928 2°44.322 11.3 28 18.8 101920 59
2009-08-12 09:42 51°23.929 2°44.311 6.1 264 18.8 101920 60
2009-08-12 09:43 51°23.928 2°44.297 6.8 265 18.9 101900 60
2009-08-12 09:44 51°23.925 2°44.285 10.6 259 18.9 101910 77
2009-08-12 09:45 51°23.922 2°44.275 8.5 259 19 101910 76
2009-08-12 09:46 51°23.919 2°44.267 12.3 260 19.1 101900 66
2009-08-12 09:47 51°23.897 2°44.262 9.9 31 19 101920 71
2009-08-12 09:48 51°23.906 2°44.282 5.8 21 19 101930 66
2009-08-12 09:49 51°23.915 2°44.321 8.5 23 19.1 101910 73
2009-08-12 09:50 51°23.923 2°44.327 10 27 19.1 101910 67
2009-08-12 09:51 51°23.915 2°44.315 9.9 269 19 101920 67
2009-08-12 09:52 51°23.906 2°44.305 7.6 264 19 101910 66
2009-08-12 09:53 51°23.898 2°44.295 7.6 262 19 101910 65
2009-08-12 09:54 51°23.889 2°44.287 9.1 260 19 101910 61
2009-08-12 09:55 51°23.881 2°44.279 7.3 262 19 101910 60
2009-08-12 09:56 51°23.882 2°44.267 6.8 264 19.1 101910 57
2009-08-12 09:57 51°23.895 2°44.255 9.8 21 19.1 101910 65
2009-08-12 09:58 51°23.9 2°44.248 9.9 26 19.1 101920 70
2009-08-12 09:59 51°23.911 2°44.291 8.1 27 19 101890 58
2009-08-12 10:00 51°23.913 2°44.321 9.5 29 19 101890 59
2009-08-12 10:01 51°23.907 2°44.336 10.7 40 19 101880 59
2009-08-12 10:02 51°23.901 2°44.356 9.5 26 18.9 101880 57
2009-08-12 10:03 51°23.908 2°44.381 10.1 29 19 101900 59
2009-08-12 10:04 51°23.92 2°44.384 10.7 23 18.9 101910 59
2009-08-12 10:05 51°23.922 2°44.376 10.7 28 18.9 101910 57
2009-08-12 10:06 51°23.923 2°44.362 8.8 267 19 101910 59
2009-08-12 10:07 51°23.92 2°44.347 8.7 260 19 101900 58
2009-08-12 10:08 51°23.918 2°44.331 13 259 19.1 101890 56
2009-08-12 10:09 51°23.918 2°44.314 12.1 260 19.2 101890 58
2009-08-12 10:10 51°23.913 2°44.298 5.2 263 19.2 101890 56
2009-08-12 10:11 51°23.908 2°44.285 9.3 258 19.3 101880 56
2009-08-12 10:12 51°23.902 2°44.273 12.1 259 19.3 101890 58
2009-08-12 10:13 51°23.896 2°44.264 9.6 261 19.3 101890 58
2009-08-12 10:14 51°23.888 2°44.256 8.9 261 19.3 101890 57
2009-08-12 10:15 51°23.879 2°44.247 8.3 262 19.3 101890 56
2009-08-12 10:16 51°23.869 2°44.24 8.9 260 19.3 101890 56
2009-08-12 10:17 51°23.871 2°44.234 9.7 29 19.3 101900 56
2009-08-12 10:18 51°23.885 2°44.24 9.3 26 19.2 101900 57
2009-08-12 10:19 51°23.896 2°44.265 6.8 23 19.1 101890 56
2009-08-12 10:20 51°23.904 2°44.297 10.5 29 19.1 101880 56
2009-08-12 10:21 51°23.919 2°44.313 8 28 19.1 101890 57
2009-08-12 10:22 51°23.926 2°44.306 9.4 30 19.1 101880 56
2009-08-12 10:23 51°23.929 2°44.289 7.3 262 19.2 101870 56
2009-08-12 10:24 51°23.928 2°44.268 12.4 260 19.2 101860 57
2009-08-12 10:25 51°23.923 2°44.248 11.5 254 19.2 101860 57
2009-08-12 10:26 51°23.918 2°44.231 10.4 255 19.2 101850 57
2009-08-12 10:27 51°23.913 2°44.215 6.8 261 19.3 101850 58
2009-08-12 10:28 51°23.944 2°44.192 8.4 266 19.2 101850 56
2009-08-12 10:29 51°24.051 2°44.168 6.1 262 19.1 101850 56
2009-08-12 10:30 51°24.179 2°44.19 6.8 263 19.2 101850 58
2009-08-12 10:31 51°24.308 2°44.223 7.1 261 19.2 101860 58
2009-08-12 10:32 51°24.415 2°44.238 8.9 260 19.2 101850 56
2009-08-12 10:33 51°24.458 2°44.208 9.6 256 19.2 101860 56
2009-08-12 10:34 51°24.478 2°44.179 11.3 258 19.2 101850 57
2009-08-12 10:35 51°24.484 2°44.151 10.2 256 19.2 101850 56
2009-08-12 10:36 51°24.483 2°44.124 9.7 249 19.2 101850 56
2009-08-12 10:37 51°24.482 2°44.093 7.9 26 19.2 101840 81
2009-08-12 10:38 51°24.485 2°44.029 11.7 316 19.2 101820 80
2009-08-12 10:39 51°24.47 2°43.931 10.5 337 19.1 101820 79
2009-08-12 10:40 51°24.417 2°43.828 13.3 338 19.1 101820 78
2009-08-12 10:41 51°24.354 2°43.703 13.2 336 19 101820 79
2009-08-12 10:42 51°24.285 2°43.566 10.8 340 19 101820 82
2009-08-12 10:43 51°24.209 2°43.432 11.3 340 19.1 101820 82
2009-08-12 10:44 51°24.123 2°43.286 12.5 340 19 101820 81
2009-08-12 10:45 51°24.028 2°43.119 12.8 340 18.9 101820 78
2009-08-12 10:46 51°23.933 2°42.95 13.6 339 18.9 101820 78
2009-08-12 10:47 51°23.838 2°42.782 13.7 338 19 101820 77
2009-08-12 10:48 51°23.742 2°42.613 14.6 341 19 101820 80
2009-08-12 10:49 51°23.639 2°42.457 13.4 339 19.1 101830 81
2009-08-12 10:50 51°23.535 2°42.301 12.2 341 19.1 101820 82
2009-08-12 10:51 51°23.432 2°42.144 14 343 19 101830 83
2009-08-12 10:52 51°23.33 2°41.989 13.8 342 19 101820 83
2009-08-12 10:53 51°23.223 2°41.824 13.6 343 18.9 101820 83
2009-08-12 10:54 51°23.115 2°41.658 13.5 343 18.8 101810 81
2009-08-12 10:55 51°23.006 2°41.493 13.8 341 18.9 101820 84
2009-08-12 10:56 51°22.898 2°41.325 14.8 342 18.9 101810 82
2009-08-12 10:57 51°22.785 2°41.151 12.4 339 19 101810 83
2009-08-12 10:58 51°22.668 2°40.971 14.3 342 19 101810 84
2009-08-12 10:59 51°22.542 2°40.809 13.8 343 18.9 101810 74
2009-08-12 11:00 51°22.405 2°40.671 13.5 343 18.9 101800 75
2009-08-12 11:01 51°22.278 2°40.552 14.5 350 18.8 101790 73
2009-08-12 11:02 51°22.155 2°40.49 12.2 353 18.8 101790 74
2009-08-12 11:03 51°22.05 2°40.448 10.9 6 18.9 101810 71
2009-08-12 11:04 51°21.973 2°40.49 8.2 30 18.8 101820 60
2009-08-12 11:05 51°21.925 2°40.664 5.4 33 18.9 101840 69
2009-08-12 11:06 51°21.912 2°40.898 6.7 21 18.9 101840 66
2009-08-12 11:07 51°21.938 2°41.125 5.1 24 18.8 101850 82
2009-08-12 11:08 51°21.976 2°41.266 7.4 30 19 101850 63
2009-08-12 11:09 51°22.044 2°41.398 6.7 27 19 101850 61
2009-08-12 11:10 51°22.129 2°41.536 7.2 20 19.1 101850 61
2009-08-12 11:11 51°22.192 2°41.621 9 28 19 101860 59
2009-08-12 11:12 51°22.242 2°41.656 7.9 270 19 101860 59
2009-08-12 11:13 51°22.314 2°41.661 9.6 259 19 101860 57
2009-08-12 11:14 51°22.431 2°41.66 11.5 259 19 101860 59
2009-08-12 11:15 51°22.514 2°41.613 11.9 249 19.1 101860 59
2009-08-12 11:16 51°22.575 2°41.555 11.4 260 19.2 101840 75
2009-08-12 11:17 51°22.625 2°41.57 8.6 29 19.1 101860 75
2009-08-12 11:18 51°22.676 2°41.579 7.7 266 19 101850 79
2009-08-12 11:19 51°22.731 2°41.555 7.9 261 19.1 101840 77
2009-08-12 11:20 51°22.777 2°41.51 8.4 254 19.2 101840 79
2009-08-12 11:21 51°22.808 2°41.458 9.9 249 19.2 101830 76
2009-08-12 11:22 51°22.843 2°41.426 7.3 22 19.2 101840 74
2009-08-12 11:23 51°22.848 2°41.495 7.9 33 19.2 101840 73
2009-08-12 11:24 51°22.778 2°41.582 11.1 20 19.1 101820 60
2009-08-12 11:25 51°22.667 2°41.691 10.4 14 19 101820 59
2009-08-12 11:26 51°22.558 2°41.779 11 15 19 101810 60
2009-08-12 11:27 51°22.441 2°41.877 9.6 13 18.9 101820 59
2009-08-12 11:28 51°22.334 2°41.955 11.2 17 18.9 101820 57
2009-08-12 11:29 51°22.253 2°42.005 11.6 17 18.9 101820 59
2009-08-12 11:30 51°22.141 2°42.122 10.1 15 18.9 101830 59
2009-08-12 11:31 51°22.008 2°42.323 10.1 21 18.8 101830 57
2009-08-12 11:32 51°21.877 2°42.534 10.1 15 18.9 101830 59
2009-08-12 11:33 51°21.744 2°42.743 8.4 21 18.8 101830 58
2009-08-12 11:34 51°21.607 2°42.948 8.5 15 18.8 101820 58
2009-08-12 11:35 51°21.469 2°43.155 8.6 15 18.9 101820 59
2009-08-12 11:36 51°21.33 2°43.362 8.3 15 18.9 101830 58
2009-08-12 11:37 51°21.194 2°43.571 7.9 14 18.9 101820 57
2009-08-12 11:38 51°21.057 2°43.778 9.2 19 18.9 101820 59
2009-08-12 11:39 51°20.92 2°43.984 8.7 21 18.9 101820 58
2009-08-12 11:40 51°20.782 2°44.19 7.7 16 18.9 101830 58
2009-08-12 11:41 51°20.648 2°44.391 6.9 20 18.9 101820 58
2009-08-12 11:42 51°20.514 2°44.591 9 20 19 101820 58
2009-08-12 11:43 51°20.387 2°44.8 5.6 19 19 101830 57
2009-08-12 11:44 51°20.296 2°45.047 7.8 23 19 101830 57
2009-08-12 11:45 51°20.211 2°45.296 6.9 32 19.1 101840 59
2009-08-12 11:46 51°20.127 2°45.542 6 28 19.1 101830 58
2009-08-12 11:47 51°20.04 2°45.784 8.1 31 19.1 101830 57
2009-08-12 11:48 51°19.954 2°46.024 6 31 19.1 101830 78
2009-08-12 11:49 51°19.863 2°46.265 7.2 24 19.1 101820 80
2009-08-12 11:50 51°19.769 2°46.505 8.4 21 19.1 101830 81
2009-08-12 11:51 51°19.671 2°46.745 6.8 23 19.1 101830 82
2009-08-12 11:52 51°19.574 2°46.991 6.3 30 19.1 101830 82
2009-08-12 11:53 51°19.476 2°47.233 6.5 27 19.2 101830 80
2009-08-12 11:54 51°19.378 2°47.476 7.9 31 19.1 101820 79
2009-08-12 11:55 51°19.28 2°47.718 7.4 27 19.1 101840 79
2009-08-12 11:56 51°19.184 2°47.961 6.3 29 19.2 101830 77
2009-08-12 11:57 51°19.089 2°48.204 5.8 29 19.2 101840 79
2009-08-12 11:58 51°18.992 2°48.444 6.7 29 19.3 101840 79
2009-08-12 11:59 51°18.899 2°48.688 4.9 27 19.3 101840 79
2009-08-12 12:00 51°18.807 2°48.934 7.3 29 19.3 101840 76
2009-08-12 12:01 51°18.714 2°49.178 7.2 28 19.2 101840 78
2009-08-12 12:02 51°18.619 2°49.421 6.5 33 19.2 101840 75
2009-08-12 12:03 51°18.525 2°49.662 6.6 28 19.3 101840 75
2009-08-12 12:04 51°18.428 2°49.905 7.1 31 19.3 101840 75
2009-08-12 12:05 51°18.33 2°50.15 7.2 32 19.5 101840 77
2009-08-12 12:06 51°18.232 2°50.396 7.2 31 19.5 101840 75
2009-08-12 12:07 51°18.136 2°50.641 6.9 34 19.4 101840 73
2009-08-12 12:08 51°18.035 2°50.879 6.5 22 19.4 101840 77
2009-08-12 12:09 51°17.91 2°51.097 5.8 19 19.5 101840 74
2009-08-12 12:10 51°17.78 2°51.313 6.9 25 19.5 101830 73
2009-08-12 12:11 51°17.651 2°51.533 7.4 26 19.5 101830 73
2009-08-12 12:12 51°17.499 2°51.716 9.5 15 19.5 101820 61
2009-08-12 12:13 51°17.323 2°51.857 10.2 8 19.5 101820 59
2009-08-12 12:14 51°17.163 2°52.032 8.7 23 19.5 101820 60
2009-08-12 12:15 51°17.016 2°52.231 7.1 20 19.4 101830 60
2009-08-12 12:16 51°16.86 2°52.415 7.9 17 19.5 101820 57
2009-08-12 12:17 51°16.696 2°52.585 9.1 15 19.5 101820 60
2009-08-12 12:18 51°16.528 2°52.747 8 10 19.6 101830 59
2009-08-12 12:19 51°16.361 2°52.907 10.5 14 19.6 101820 57
2009-08-12 12:20 51°16.192 2°53.058 10.5 16 19.5 101820 59
2009-08-12 12:21 51°16.022 2°53.207 8.6 17 19.6 101820 59
2009-08-12 12:22 51°15.852 2°53.352 9.4 13 19.6 101820 59
2009-08-12 12:23 51°15.683 2°53.496 10.1 9 19.6 101820 59
2009-08-12 12:24 51°15.518 2°53.651 7.6 13 19.6 101830 56
2009-08-12 12:25 51°15.361 2°53.822 9.8 18 19.7 101830 57
2009-08-12 12:26 51°15.206 2°53.993 8.2 13 19.6 101830 57
2009-08-12 12:27 51°15.053 2°54.158 8.5 17 19.6 101820 56
2009-08-12 12:28 51°14.9 2°54.334 8.2 20 19.7 101830 58
2009-08-12 12:29 51°14.748 2°54.518 6.9 21 19.7 101830 57
2009-08-12 12:30 51°14.6 2°54.709 6.8 20 19.7 101830 69
2009-08-12 12:31 51°14.461 2°54.911 6.7 18 19.9 101840 71
2009-08-12 12:32 51°14.331 2°55.128 5.3 23 19.9 101830 72
2009-08-12 12:33 51°14.218 2°55.317 6.7 26 20 101830 73
2009-08-12 12:34 51°14.1 2°55.431 4.4 6 20 101830 73
2009-08-12 12:35 51°13.986 2°55.513 3.7 355 20.2 101840 73
2009-08-12 12:36 51°13.886 2°55.585 4.4 4 20.3 101840 66
2009-08-12 12:37 51°13.798 2°55.653 5.8 30 20.3 101840 66
2009-08-12 12:38 51°13.74 2°55.743 2.4 4 20.4 101840 66
2009-08-12 12:39 51°13.706 2°55.842 5.3 23 20.5 101840 65
2009-08-12 12:40 51°13.69 2°55.899 5.9 36 20.6 101840 64
2009-08-12 12:41 51°13.687 2°55.904 5.5 26 20.6 101830 66